createdAt,value
2023-01-26T00:00:02.738Z,22.20
2023-01-26T00:02:57.742Z,21.75
2023-01-26T00:05:30.202Z,21.15
2023-01-26T00:08:03.298Z,21.83
2023-01-26T00:10:39.401Z,20.75
2023-01-26T00:13:12.308Z,23.73
2023-01-26T00:15:44.955Z,21.55
2023-01-26T00:18:17.879Z,23.42
2023-01-26T00:20:59.972Z,23.77
2023-01-26T00:23:33.702Z,21.48
2023-01-26T00:26:06.941Z,21.92
2023-01-26T00:28:39.949Z,20.25
2023-01-26T00:31:16.135Z,22.40
2023-01-26T00:33:49.240Z,21.33
2023-01-26T00:36:21.923Z,21.02
2023-01-26T00:38:54.754Z,19.20
2023-01-26T00:41:45.997Z,16.75
2023-01-26T00:44:18.935Z,18.42
2023-01-26T00:46:52.007Z,20.33
2023-01-26T00:49:25.128Z,18.08
2023-01-26T00:51:58.625Z,18.05
2023-01-26T00:54:31.517Z,17.60
2023-01-26T00:57:04.118Z,16.95
2023-01-26T00:59:37.864Z,14.25
2023-01-26T01:02:10.448Z,14.70
2023-01-26T01:04:43.321Z,14.02
2023-01-26T01:07:15.903Z,13.65
2023-01-26T01:09:49.405Z,13.43
2023-01-26T01:12:21.967Z,13.48
2023-01-26T01:14:55.038Z,11.65
2023-01-26T01:17:27.498Z,12.77
2023-01-26T01:20:00.411Z,13.48
2023-01-26T01:22:33.992Z,14.18
2023-01-26T01:25:07.044Z,13.02
2023-01-26T01:27:39.801Z,13.40
2023-01-26T01:30:13.521Z,14.13
2023-01-26T01:32:49.992Z,13.90
2023-01-26T01:35:23.007Z,14.50
2023-01-26T01:37:56.791Z,13.77
2023-01-26T01:40:29.885Z,15.23
2023-01-26T01:43:02.449Z,12.32
2023-01-26T01:45:38.519Z,15.60
2023-01-26T01:48:20.175Z,13.02
2023-01-26T01:50:55.074Z,11.95
2023-01-26T01:53:33.477Z,11.45
2023-01-26T01:56:13.496Z,10.02
2023-01-26T01:58:50.824Z,11.69
2023-01-26T02:01:24.196Z,10.40
2023-01-26T02:03:59.880Z,11.00
2023-01-26T02:06:38.907Z,7.57
2023-01-26T02:09:35.297Z,8.27
2023-01-26T02:12:09.799Z,9.13
2023-01-26T02:14:44.131Z,7.82
2023-01-26T02:17:17.222Z,7.43
2023-01-26T02:19:49.923Z,5.53
2023-01-26T02:22:34.970Z,7.32
2023-01-26T02:25:13.172Z,6.45
2023-01-26T02:27:46.633Z,9.40
2023-01-26T02:30:19.282Z,7.30
2023-01-26T02:32:52.529Z,7.10
2023-01-26T02:35:25.629Z,7.43
2023-01-26T02:38:04.152Z,8.02
2023-01-26T02:40:39.556Z,5.40
2023-01-26T02:43:13.045Z,6.50
2023-01-26T02:45:45.863Z,5.95
2023-01-26T02:48:37.329Z,6.13
2023-01-26T02:51:10.002Z,7.43
2023-01-26T02:53:43.365Z,7.38
2023-01-26T02:56:15.942Z,7.28
2023-01-26T02:58:48.942Z,7.35
2023-01-26T03:01:21.635Z,7.30
2023-01-26T03:03:54.683Z,6.95
2023-01-26T03:06:34.492Z,6.32
2023-01-26T03:09:07.477Z,6.30
2023-01-26T03:11:43.307Z,7.07
2023-01-26T03:14:16.936Z,5.88
2023-01-26T03:16:49.667Z,7.03
2023-01-26T03:19:41.289Z,6.10
2023-01-26T03:22:35.031Z,7.60
2023-01-26T03:25:29.224Z,6.35
2023-01-26T03:28:08.210Z,5.22
2023-01-26T03:30:41.755Z,5.95
2023-01-26T03:33:16.611Z,7.03
2023-01-26T03:35:52.890Z,7.85
2023-01-26T03:38:25.755Z,6.35
2023-01-26T03:41:23.294Z,8.02
2023-01-26T03:44:14.475Z,7.13
2023-01-26T03:47:06.150Z,7.43
2023-01-26T03:50:00.451Z,6.80
2023-01-26T03:52:54.908Z,7.10
2023-01-26T03:55:46.137Z,6.82
2023-01-26T03:58:19.214Z,8.18
2023-01-26T04:00:53.158Z,7.28
2023-01-26T04:03:45.278Z,7.28
2023-01-26T04:06:36.588Z,8.07
2023-01-26T04:09:09.507Z,7.70
2023-01-26T04:11:42.221Z,6.78
2023-01-26T04:14:38.234Z,7.57
2023-01-26T04:17:42.499Z,7.40
2023-01-26T04:20:35.150Z,6.53
2023-01-26T04:23:07.748Z,8.63
2023-01-26T04:25:41.151Z,7.97
2023-01-26T04:28:14.651Z,7.75
2023-01-26T04:30:48.173Z,6.90
2023-01-26T04:33:20.822Z,8.13
2023-01-26T04:35:53.886Z,8.32
2023-01-26T04:38:28.058Z,7.28
2023-01-26T04:41:05.518Z,7.90
2023-01-26T04:43:44.909Z,7.93
2023-01-26T04:46:18.047Z,7.97
2023-01-26T04:48:50.683Z,8.70
2023-01-26T04:51:23.724Z,8.82
2023-01-26T04:53:56.749Z,8.60
2023-01-26T04:56:31.804Z,7.60
2023-01-26T04:59:06.595Z,8.95
2023-01-26T05:01:42.116Z,8.68
2023-01-26T05:04:14.774Z,7.88
2023-01-26T05:06:51.337Z,7.82
2023-01-26T05:09:24.002Z,8.73
2023-01-26T05:12:31.896Z,7.90
2023-01-26T05:15:23.338Z,8.18
2023-01-26T05:18:17.301Z,8.48
2023-01-26T05:23:47.065Z,9.38
2023-01-26T05:27:08.560Z,9.45
2023-01-26T05:29:51.747Z,7.93
2023-01-26T05:32:24.907Z,10.98
2023-01-26T05:34:58.390Z,10.57
2023-01-26T05:37:31.102Z,7.45
2023-01-26T05:40:04.885Z,8.32
2023-01-26T05:42:37.719Z,8.68
2023-01-26T05:45:20.120Z,9.98
2023-01-26T05:47:53.212Z,9.75
2023-01-26T05:50:26.183Z,10.93
2023-01-26T05:53:20.068Z,8.70
2023-01-26T05:55:53.937Z,6.30
2023-01-26T05:58:29.446Z,8.23
2023-01-26T06:01:05.784Z,5.85
2023-01-26T06:03:47.191Z,6.45
2023-01-26T06:06:20.163Z,6.20
2023-01-26T06:08:58.017Z,6.15
2023-01-26T06:11:36.812Z,6.20
2023-01-26T06:14:32.325Z,6.32
2023-01-26T06:17:05.368Z,6.10
2023-01-26T06:19:38.171Z,5.75
2023-01-26T06:22:12.844Z,7.20
2023-01-26T06:24:49.432Z,6.75
2023-01-26T06:27:26.173Z,6.72
2023-01-26T06:29:59.261Z,7.90
2023-01-26T06:32:33.183Z,7.20
2023-01-26T06:35:07.149Z,5.68
2023-01-26T06:37:50.690Z,7.57
2023-01-26T06:40:23.583Z,6.50
2023-01-26T06:42:56.903Z,6.50
2023-01-26T06:45:29.519Z,6.55
2023-01-26T06:48:02.444Z,7.07
2023-01-26T06:50:36.049Z,7.25
2023-01-26T06:53:41.340Z,11.82
2023-01-26T06:56:31.864Z,10.52
2023-01-26T06:59:23.191Z,8.68
2023-01-26T07:02:24.919Z,7.28
2023-01-26T07:04:58.041Z,8.30
2023-01-26T07:07:30.578Z,7.72
2023-01-26T07:10:07.054Z,5.38
2023-01-26T07:12:41.144Z,6.88
2023-01-26T07:15:14.321Z,6.25
2023-01-26T07:17:47.137Z,7.07
2023-01-26T07:20:20.665Z,6.68
2023-01-26T07:22:53.465Z,6.05
2023-01-26T07:25:26.377Z,4.30
2023-01-26T07:27:59.527Z,5.65
2023-01-26T07:30:32.600Z,5.90
2023-01-26T07:33:05.142Z,6.78
2023-01-26T07:35:38.050Z,10.02
2023-01-26T07:38:10.952Z,8.65
2023-01-26T07:40:50.515Z,7.85
2023-01-26T07:43:23.268Z,8.32
2023-01-26T07:45:58.783Z,8.88
2023-01-26T07:48:31.314Z,7.65
2023-01-26T07:51:04.780Z,6.90
2023-01-26T07:53:40.581Z,7.85
2023-01-26T07:56:14.720Z,5.60
2023-01-26T07:58:51.381Z,6.03
2023-01-26T08:01:24.769Z,7.03
2023-01-26T08:03:57.393Z,4.97
2023-01-26T08:06:30.285Z,4.85
2023-01-26T08:09:02.841Z,5.15
2023-01-26T08:11:35.748Z,6.63
2023-01-26T08:14:08.409Z,7.15
2023-01-26T08:16:41.377Z,6.05
2023-01-26T08:19:14.078Z,5.55
2023-01-26T08:21:47.098Z,7.22
2023-01-26T08:24:19.563Z,8.80
2023-01-26T08:26:52.624Z,7.93
2023-01-26T08:29:25.227Z,7.47
2023-01-26T08:31:58.159Z,8.70
2023-01-26T08:34:31.327Z,5.95
2023-01-26T08:37:04.247Z,5.93
2023-01-26T08:39:36.917Z,7.90
2023-01-26T08:42:09.728Z,4.18
2023-01-26T08:44:42.205Z,4.75
2023-01-26T08:47:15.269Z,5.40
2023-01-26T08:49:47.901Z,5.57
2023-01-26T08:52:22.047Z,4.78
2023-01-26T08:54:54.632Z,4.18
2023-01-26T08:57:27.692Z,5.47
2023-01-26T09:00:00.237Z,5.35
2023-01-26T09:02:33.281Z,5.75
2023-01-26T09:05:06.282Z,7.47
2023-01-26T09:07:39.307Z,8.25
2023-01-26T09:10:12.265Z,8.10
2023-01-26T09:12:45.500Z,6.45
2023-01-26T09:15:18.178Z,5.28
2023-01-26T09:17:51.469Z,6.25
2023-01-26T09:20:24.285Z,5.20
2023-01-26T09:22:57.946Z,5.93
2023-01-26T09:25:30.722Z,6.57
2023-01-26T09:28:05.594Z,5.70
2023-01-26T09:30:38.420Z,4.85
2023-01-26T09:33:11.410Z,4.57
2023-01-26T09:35:44.046Z,5.28
2023-01-26T09:38:17.150Z,4.45
2023-01-26T09:41:19.395Z,4.00
2023-01-26T09:43:54.353Z,4.97
2023-01-26T09:46:26.873Z,4.30
2023-01-26T09:49:02.644Z,6.15
2023-01-26T09:51:37.033Z,5.40
2023-01-26T09:54:29.065Z,7.85
2023-01-26T09:57:03.024Z,5.55
2023-01-26T09:59:42.931Z,4.13
2023-01-26T10:02:34.711Z,5.68
2023-01-26T10:07:45.550Z,5.32
2023-01-26T10:10:21.896Z,4.53
2023-01-26T10:12:55.713Z,4.57
2023-01-26T10:15:33.671Z,5.13
2023-01-26T10:18:26.407Z,6.55
2023-01-26T10:21:00.874Z,4.25
2023-01-26T10:23:34.679Z,5.45
2023-01-26T10:26:13.369Z,5.65
2023-01-26T10:28:47.034Z,4.75
2023-01-26T10:31:25.107Z,5.22
2023-01-26T10:34:13.358Z,4.82
2023-01-26T10:36:47.103Z,5.55
2023-01-26T10:39:19.829Z,4.72
2023-01-26T10:41:57.041Z,7.50
2023-01-26T10:44:36.996Z,7.53
2023-01-26T10:47:17.016Z,7.53
2023-01-26T10:49:49.725Z,6.00
2023-01-26T10:52:25.204Z,5.40
2023-01-26T10:55:17.567Z,5.45
2023-01-26T10:57:50.644Z,6.07
2023-01-26T11:00:25.251Z,5.97
2023-01-26T11:03:01.230Z,4.45
2023-01-26T11:05:34.249Z,5.53
2023-01-26T11:08:27.216Z,8.50
2023-01-26T11:10:59.803Z,6.40
2023-01-26T11:13:32.758Z,4.85
2023-01-26T11:16:05.459Z,4.50
2023-01-26T11:18:43.104Z,2.75
2023-01-26T11:21:22.667Z,3.63
2023-01-26T11:24:05.440Z,8.80
2023-01-26T11:26:56.548Z,6.88
2023-01-26T11:29:47.867Z,6.57
2023-01-26T11:32:26.357Z,10.93
2023-01-26T11:35:17.919Z,6.57
2023-01-26T11:38:09.942Z,6.25
2023-01-26T11:40:55.535Z,6.13
2023-01-26T11:43:34.041Z,6.32
2023-01-26T11:46:25.816Z,5.60
2023-01-26T11:49:07.624Z,4.70
2023-01-26T11:51:50.029Z,5.00
2023-01-26T11:54:41.095Z,5.85
2023-01-26T11:57:16.790Z,5.97
2023-01-26T11:59:49.284Z,7.00
2023-01-26T12:02:30.023Z,6.75
2023-01-26T12:05:06.273Z,8.27
2023-01-26T12:07:57.345Z,8.15
2023-01-26T12:10:48.730Z,6.05
2023-01-26T12:13:36.615Z,6.32
2023-01-26T12:16:21.740Z,4.00
2023-01-26T12:19:10.114Z,6.78
2023-01-26T12:21:44.832Z,4.57
2023-01-26T12:24:46.782Z,4.75
2023-01-26T12:27:18.751Z,7.22
2023-01-26T12:30:03.011Z,6.75
2023-01-26T12:32:35.612Z,6.65
2023-01-26T12:35:11.731Z,6.88
2023-01-26T12:38:12.154Z,6.65
2023-01-26T12:41:03.489Z,7.25
2023-01-26T12:43:36.004Z,9.45
2023-01-26T12:46:09.610Z,7.00
2023-01-26T12:48:44.924Z,7.43
2023-01-26T12:51:25.984Z,5.78
2023-01-26T12:54:00.399Z,5.60
2023-01-26T12:56:36.642Z,9.35
2023-01-26T12:59:38.382Z,5.45
2023-01-26T13:02:18.114Z,7.15
2023-01-26T13:04:51.133Z,6.38
2023-01-26T13:07:40.412Z,6.43
2023-01-26T13:10:18.008Z,5.55
2023-01-26T13:12:50.931Z,5.25
2023-01-26T13:15:25.127Z,4.53
2023-01-26T13:18:02.104Z,5.10
2023-01-26T13:20:40.921Z,5.00
2023-01-26T13:23:29.194Z,6.65
2023-01-26T13:26:20.476Z,6.43
2023-01-26T13:29:13.355Z,5.72
2023-01-26T13:31:45.839Z,5.00
2023-01-26T13:34:20.504Z,7.30
2023-01-26T13:36:53.573Z,6.43
2023-01-26T13:39:35.004Z,6.50
2023-01-26T13:42:23.042Z,7.32
2023-01-26T13:45:08.743Z,7.57
2023-01-26T13:47:43.101Z,6.30
2023-01-26T13:50:23.874Z,7.10
2023-01-26T13:52:56.498Z,6.07
2023-01-26T13:55:33.455Z,5.05
2023-01-26T13:58:16.494Z,5.05
2023-01-26T14:00:59.645Z,4.85
2023-01-26T14:03:32.182Z,5.72
2023-01-26T14:06:09.414Z,6.32
2023-01-26T14:08:45.541Z,7.10
2023-01-26T14:11:20.412Z,5.50
2023-01-26T14:13:56.409Z,6.82
2023-01-26T14:16:31.064Z,7.50
2023-01-26T14:19:11.222Z,7.63
2023-01-26T14:21:46.949Z,7.55
2023-01-26T14:24:25.134Z,6.07
2023-01-26T14:26:58.146Z,8.73
2023-01-26T14:29:31.121Z,7.13
2023-01-26T14:32:04.730Z,6.63
2023-01-26T14:34:37.309Z,8.50
2023-01-26T14:37:14.457Z,7.18
2023-01-26T14:39:48.373Z,6.65
2023-01-26T14:42:22.040Z,5.30
2023-01-26T14:44:54.762Z,6.60
2023-01-26T14:47:31.894Z,7.10
2023-01-26T14:50:12.621Z,10.07
2023-01-26T14:52:46.724Z,10.93
2023-01-26T14:55:22.411Z,10.15
2023-01-26T14:57:55.709Z,7.80
2023-01-26T15:00:33.523Z,6.13
2023-01-26T15:03:11.914Z,7.68
2023-01-26T15:05:45.058Z,6.53
2023-01-26T15:08:22.420Z,9.57
2023-01-26T15:11:16.599Z,10.27
2023-01-26T15:13:53.834Z,11.35
2023-01-26T15:16:26.682Z,9.88
2023-01-26T15:19:01.032Z,7.50
2023-01-26T15:21:39.979Z,9.35
2023-01-26T15:24:14.230Z,10.15
2023-01-26T15:26:46.880Z,8.95
2023-01-26T15:29:24.369Z,10.98
2023-01-26T15:31:57.900Z,10.82
2023-01-26T15:34:32.917Z,12.70
2023-01-26T15:37:25.685Z,13.27
2023-01-26T15:39:58.671Z,10.45
2023-01-26T15:42:32.023Z,13.15
2023-01-26T15:45:13.176Z,13.98
2023-01-26T15:47:45.846Z,15.70
2023-01-26T15:50:27.906Z,12.35
2023-01-26T15:53:01.152Z,11.15
2023-01-26T15:55:34.209Z,13.02
2023-01-26T15:58:06.798Z,16.85
2023-01-26T16:00:39.877Z,11.93
2023-01-26T16:03:14.225Z,15.32
2023-01-26T16:05:51.783Z,16.98
2023-01-26T16:08:24.606Z,13.13
2023-01-26T16:10:57.926Z,12.68
2023-01-26T16:13:33.865Z,17.48
2023-01-26T16:16:09.525Z,19.80
2023-01-26T16:18:42.591Z,16.77
2023-01-26T16:21:19.621Z,15.00
2023-01-26T16:23:52.380Z,12.52
2023-01-26T16:26:25.888Z,11.88
2023-01-26T16:28:58.474Z,11.65
2023-01-26T16:31:32.952Z,11.18
2023-01-26T16:34:06.183Z,10.38
2023-01-26T16:36:39.036Z,10.95
2023-01-26T16:39:11.625Z,14.23
2023-01-26T16:41:44.560Z,14.00
2023-01-26T16:44:17.943Z,18.83
2023-01-26T16:46:50.751Z,32.95
2023-01-26T16:49:23.442Z,25.60
2023-01-26T16:51:56.419Z,21.63
2023-01-26T16:54:29.000Z,18.13
2023-01-26T16:57:01.942Z,15.85
2023-01-26T16:59:34.471Z,17.20
2023-01-26T17:02:19.341Z,23.33
2023-01-26T17:04:52.593Z,29.48
2023-01-26T17:07:25.552Z,33.03
2023-01-26T17:09:58.186Z,27.33
2023-01-26T17:12:31.065Z,20.60
2023-01-26T17:15:04.237Z,19.40
2023-01-26T17:17:37.169Z,20.20
2023-01-26T17:20:18.895Z,13.18
2023-01-26T17:22:52.702Z,16.10
2023-01-26T17:25:25.601Z,12.85
2023-01-26T17:27:58.532Z,27.60
2023-01-26T17:30:31.249Z,31.08
2023-01-26T17:33:04.246Z,16.95
2023-01-26T17:35:36.835Z,17.25
2023-01-26T17:38:09.765Z,26.70
2023-01-26T17:40:42.465Z,136.20
2023-01-26T17:43:15.380Z,78.88
2023-01-26T17:45:47.873Z,44.97
2023-01-26T17:48:20.778Z,45.55
2023-01-26T17:50:54.989Z,19.05
2023-01-26T17:53:29.049Z,16.30
2023-01-26T17:56:01.650Z,79.07
2023-01-26T17:58:34.697Z,37.45
2023-01-26T18:01:08.373Z,20.38
2023-01-26T18:03:42.480Z,14.15
2023-01-26T18:06:15.156Z,17.75
2023-01-26T18:08:49.244Z,16.08
2023-01-26T18:11:22.040Z,17.27
2023-01-26T18:13:55.726Z,26.33
2023-01-26T18:16:28.213Z,16.27
2023-01-26T18:19:04.795Z,20.15
2023-01-26T18:21:37.411Z,25.10
2023-01-26T18:24:10.545Z,16.10
2023-01-26T18:26:43.133Z,15.13
2023-01-26T18:29:17.026Z,13.85
2023-01-26T18:31:49.703Z,14.15
2023-01-26T18:34:22.706Z,14.27
2023-01-26T18:36:55.800Z,15.70
2023-01-26T18:39:29.307Z,15.75
2023-01-26T18:42:01.776Z,19.42
2023-01-26T18:44:34.858Z,16.52
2023-01-26T18:47:07.343Z,14.93
2023-01-26T18:49:40.167Z,20.83
2023-01-26T18:52:12.799Z,24.38
2023-01-26T18:54:45.717Z,20.13
2023-01-26T18:57:18.569Z,18.33
2023-01-26T18:59:51.555Z,16.92
2023-01-26T19:02:25.860Z,19.92
2023-01-26T19:04:58.965Z,18.75
2023-01-26T19:07:31.522Z,23.98
2023-01-26T19:10:06.365Z,15.63
2023-01-26T19:12:38.837Z,18.25
2023-01-26T19:15:12.021Z,16.33
2023-01-26T19:17:45.241Z,17.13
2023-01-26T19:20:18.538Z,15.52
2023-01-26T19:22:54.420Z,15.13
2023-01-26T19:25:27.236Z,16.98
2023-01-26T19:27:59.753Z,13.80
2023-01-26T19:30:33.923Z,14.65
2023-01-26T19:33:24.240Z,15.07
2023-01-26T19:35:57.197Z,15.80
2023-01-26T19:38:30.206Z,17.05
2023-01-26T19:41:03.280Z,16.02
2023-01-26T19:43:36.010Z,20.23
2023-01-26T19:46:11.972Z,16.20
2023-01-26T19:48:44.865Z,15.80
2023-01-26T19:51:19.406Z,19.52
2023-01-26T19:54:00.688Z,46.85
2023-01-26T19:56:44.705Z,27.65
2023-01-26T19:59:17.688Z,25.98
2023-01-26T20:01:50.576Z,21.73
2023-01-26T20:04:23.119Z,22.13
2023-01-26T20:06:56.009Z,21.60
2023-01-26T20:09:32.376Z,23.98
2023-01-26T20:12:07.412Z,30.08
2023-01-26T20:14:39.932Z,18.73
2023-01-26T20:17:12.887Z,15.50
2023-01-26T20:19:45.496Z,14.93
2023-01-26T20:22:18.346Z,15.80
2023-01-26T20:24:50.915Z,16.20
2023-01-26T20:27:23.842Z,16.10
2023-01-26T20:29:56.613Z,13.93
2023-01-26T20:32:29.680Z,18.80
2023-01-26T20:35:02.694Z,24.23
2023-01-26T20:37:36.387Z,18.65
2023-01-26T20:40:09.585Z,31.05
2023-01-26T20:42:42.756Z,24.35
2023-01-26T20:45:15.306Z,24.40
2023-01-26T20:47:48.408Z,22.88
2023-01-26T20:50:21.143Z,23.95
2023-01-26T20:52:54.052Z,20.90
2023-01-26T20:55:26.517Z,22.55
2023-01-26T20:57:59.424Z,32.05
2023-01-26T21:00:33.317Z,40.00
2023-01-26T21:03:06.164Z,24.60
2023-01-26T21:05:38.650Z,26.23
2023-01-26T21:08:11.714Z,26.95
2023-01-26T21:10:45.852Z,25.23
2023-01-26T21:13:18.754Z,25.10
2023-01-26T21:15:51.934Z,23.98
2023-01-26T21:18:24.946Z,21.15
2023-01-26T21:20:58.541Z,22.45
2023-01-26T21:23:32.524Z,22.55
2023-01-26T21:26:06.648Z,21.75
2023-01-26T21:28:39.824Z,22.10
2023-01-26T21:31:14.210Z,18.48
2023-01-26T21:33:47.705Z,19.90
2023-01-26T21:36:21.737Z,21.05
2023-01-26T21:38:56.173Z,20.60
2023-01-26T21:41:48.939Z,20.27
2023-01-26T21:44:29.009Z,18.95
2023-01-26T21:47:04.033Z,20.40
2023-01-26T21:49:37.027Z,21.00
2023-01-26T21:52:28.118Z,20.20
2023-01-26T21:55:01.000Z,19.38
2023-01-26T21:57:52.179Z,20.92
2023-01-26T22:00:25.156Z,18.33
2023-01-26T22:02:59.853Z,18.33
2023-01-26T22:05:32.752Z,17.58
2023-01-26T22:08:06.982Z,20.17
2023-01-26T22:10:41.238Z,16.75
2023-01-26T22:13:13.704Z,18.02
2023-01-26T22:15:46.608Z,17.63
2023-01-26T22:18:19.175Z,17.75
2023-01-26T22:20:52.326Z,15.05
2023-01-26T22:23:24.903Z,15.85
2023-01-26T22:25:58.092Z,18.27
2023-01-26T22:28:30.944Z,16.80
2023-01-26T22:31:06.994Z,17.73
2023-01-26T22:33:40.387Z,19.88
2023-01-26T22:36:13.606Z,17.48
2023-01-26T22:38:46.948Z,20.27
2023-01-26T22:41:22.092Z,19.08
2023-01-26T22:43:55.516Z,19.40
2023-01-26T22:46:29.594Z,18.67
2023-01-26T22:49:02.927Z,18.48
2023-01-26T22:51:43.324Z,18.60
2023-01-26T22:54:16.259Z,19.40
2023-01-26T22:56:49.116Z,14.95
2023-01-26T22:59:22.128Z,18.63
2023-01-26T23:01:57.397Z,16.95
2023-01-26T23:04:30.087Z,15.65
2023-01-26T23:07:03.124Z,15.32
2023-01-26T23:09:35.849Z,14.65
2023-01-26T23:12:08.930Z,15.10
2023-01-26T23:14:41.459Z,17.48
2023-01-26T23:17:14.307Z,15.40
2023-01-26T23:19:49.557Z,16.27
2023-01-26T23:22:23.761Z,16.55
2023-01-26T23:25:14.602Z,16.85
2023-01-26T23:27:47.507Z,17.80
2023-01-26T23:30:20.150Z,18.42
2023-01-26T23:32:53.025Z,16.33
2023-01-26T23:35:26.707Z,16.77
2023-01-26T23:38:00.836Z,15.30
2023-01-26T23:40:34.244Z,15.25
2023-01-26T23:43:16.520Z,15.82
2023-01-26T23:45:50.651Z,15.98
2023-01-26T23:48:23.764Z,16.63
2023-01-26T23:50:57.724Z,15.85
2023-01-26T23:53:31.080Z,15.38
2023-01-26T23:56:06.134Z,15.82
2023-01-26T23:58:39.127Z,15.73
